sensor_id;sensor_type;location;lat;lon;timestamp;P1;durP1;ratioP1;P2;durP2;ratioP2
37459;SDS011;23318;50.966;5.284;2024-01-15T00:01:55;45.63;;;15.38;;
37459;SDS011;23318;50.966;5.284;2024-01-15T00:04:21;35.97;;;12.77;;
37459;SDS011;23318;50.966;5.284;2024-01-15T00:06:46;45.50;;;15.73;;
37459;SDS011;23318;50.966;5.284;2024-01-15T00:09:12;46.40;;;14.13;;
37459;SDS011;23318;50.966;5.284;2024-01-15T00:11:38;41.00;;;14.15;;
37459;SDS011;23318;50.966;5.284;2024-01-15T00:14:03;46.63;;;15.20;;
37459;SDS011;23318;50.966;5.284;2024-01-15T00:16:29;41.78;;;13.90;;
37459;SDS011;23318;50.966;5.284;2024-01-15T00:18:54;47.28;;;13.55;;
37459;SDS011;23318;50.966;5.284;2024-01-15T00:21:20;49.35;;;15.93;;
37459;SDS011;23318;50.966;5.284;2024-01-15T00:23:46;36.88;;;11.30;;
37459;SDS011;23318;50.966;5.284;2024-01-15T00:26:12;41.05;;;14.73;;
37459;SDS011;23318;50.966;5.284;2024-01-15T00:28:38;37.75;;;13.43;;
37459;SDS011;23318;50.966;5.284;2024-01-15T00:31:04;39.33;;;13.25;;
37459;SDS011;23318;50.966;5.284;2024-01-15T00:33:30;46.78;;;13.93;;
37459;SDS011;23318;50.966;5.284;2024-01-15T00:35:56;43.63;;;11.93;;
37459;SDS011;23318;50.966;5.284;2024-01-15T00:38:22;37.83;;;12.60;;
37459;SDS011;23318;50.966;5.284;2024-01-15T00:40:47;41.40;;;14.68;;
37459;SDS011;23318;50.966;5.284;2024-01-15T00:43:13;36.75;;;13.95;;
37459;SDS011;23318;50.966;5.284;2024-01-15T00:45:39;37.10;;;13.55;;
37459;SDS011;23318;50.966;5.284;2024-01-15T00:48:05;42.55;;;13.77;;
37459;SDS011;23318;50.966;5.284;2024-01-15T00:50:31;45.03;;;14.60;;
37459;SDS011;23318;50.966;5.284;2024-01-15T00:52:57;48.25;;;15.23;;
37459;SDS011;23318;50.966;5.284;2024-01-15T00:55:22;47.90;;;15.50;;
37459;SDS011;23318;50.966;5.284;2024-01-15T00:57:48;41.60;;;14.30;;
37459;SDS011;23318;50.966;5.284;2024-01-15T01:00:14;40.92;;;13.60;;
37459;SDS011;23318;50.966;5.284;2024-01-15T01:02:39;54.10;;;16.27;;
37459;SDS011;23318;50.966;5.284;2024-01-15T01:05:05;43.08;;;14.95;;
37459;SDS011;23318;50.966;5.284;2024-01-15T01:07:31;41.33;;;16.15;;
37459;SDS011;23318;50.966;5.284;2024-01-15T01:09:57;34.67;;;13.75;;
37459;SDS011;23318;50.966;5.284;2024-01-15T01:12:23;51.08;;;16.27;;
37459;SDS011;23318;50.966;5.284;2024-01-15T01:14:48;41.15;;;15.73;;
37459;SDS011;23318;50.966;5.284;2024-01-15T01:17:14;46.58;;;15.68;;
37459;SDS011;23318;50.966;5.284;2024-01-15T01:19:40;37.83;;;14.43;;
37459;SDS011;23318;50.966;5.284;2024-01-15T01:22:05;46.00;;;14.10;;
37459;SDS011;23318;50.966;5.284;2024-01-15T01:24:31;43.10;;;14.18;;
37459;SDS011;23318;50.966;5.284;2024-01-15T01:26:56;45.47;;;16.33;;
37459;SDS011;23318;50.966;5.284;2024-01-15T01:29:22;44.97;;;16.25;;
37459;SDS011;23318;50.966;5.284;2024-01-15T01:31:48;40.13;;;13.15;;
37459;SDS011;23318;50.966;5.284;2024-01-15T01:34:14;48.15;;;16.17;;
37459;SDS011;23318;50.966;5.284;2024-01-15T01:36:41;47.65;;;14.55;;
37459;SDS011;23318;50.966;5.284;2024-01-15T01:39:07;48.78;;;17.92;;
37459;SDS011;23318;50.966;5.284;2024-01-15T01:41:34;45.80;;;14.43;;
37459;SDS011;23318;50.966;5.284;2024-01-15T01:43:59;43.72;;;14.77;;
37459;SDS011;23318;50.966;5.284;2024-01-15T01:46:25;43.92;;;13.63;;
37459;SDS011;23318;50.966;5.284;2024-01-15T01:48:53;44.47;;;14.93;;
37459;SDS011;23318;50.966;5.284;2024-01-15T01:51:20;51.70;;;16.48;;
37459;SDS011;23318;50.966;5.284;2024-01-15T01:53:46;45.80;;;13.88;;
37459;SDS011;23318;50.966;5.284;2024-01-15T01:56:13;47.22;;;15.02;;
37459;SDS011;23318;50.966;5.284;2024-01-15T01:58:39;41.15;;;14.55;;
37459;SDS011;23318;50.966;5.284;2024-01-15T02:01:05;49.03;;;16.05;;
37459;SDS011;23318;50.966;5.284;2024-01-15T02:03:31;39.47;;;13.32;;
37459;SDS011;23318;50.966;5.284;2024-01-15T02:05:59;33.25;;;10.00;;
37459;SDS011;23318;50.966;5.284;2024-01-15T02:08:26;37.97;;;13.30;;
37459;SDS011;23318;50.966;5.284;2024-01-15T02:10:52;26.67;;;11.23;;
37459;SDS011;23318;50.966;5.284;2024-01-15T02:13:17;40.88;;;14.40;;
37459;SDS011;23318;50.966;5.284;2024-01-15T02:15:44;43.03;;;14.93;;
37459;SDS011;23318;50.966;5.284;2024-01-15T02:18:09;42.78;;;13.70;;
37459;SDS011;23318;50.966;5.284;2024-01-15T02:20:35;41.25;;;13.43;;
37459;SDS011;23318;50.966;5.284;2024-01-15T02:23:08;41.38;;;13.02;;
37459;SDS011;23318;50.966;5.284;2024-01-15T02:25:37;35.20;;;13.00;;
37459;SDS011;23318;50.966;5.284;2024-01-15T02:28:16;39.67;;;12.50;;
37459;SDS011;23318;50.966;5.284;2024-01-15T02:30:43;41.83;;;13.85;;
37459;SDS011;23318;50.966;5.284;2024-01-15T02:33:09;28.63;;;12.15;;
37459;SDS011;23318;50.966;5.284;2024-01-15T02:35:36;37.33;;;11.75;;
37459;SDS011;23318;50.966;5.284;2024-01-15T02:38:02;33.78;;;12.65;;
37459;SDS011;23318;50.966;5.284;2024-01-15T02:40:28;40.67;;;13.38;;
37459;SDS011;23318;50.966;5.284;2024-01-15T02:42:54;36.38;;;12.02;;
37459;SDS011;23318;50.966;5.284;2024-01-15T02:45:20;35.70;;;12.32;;
37459;SDS011;23318;50.966;5.284;2024-01-15T02:47:46;34.65;;;12.35;;
37459;SDS011;23318;50.966;5.284;2024-01-15T02:50:12;28.90;;;10.82;;
37459;SDS011;23318;50.966;5.284;2024-01-15T02:52:38;34.15;;;11.63;;
37459;SDS011;23318;50.966;5.284;2024-01-15T02:55:04;23.33;;;9.80;;
37459;SDS011;23318;50.966;5.284;2024-01-15T02:57:30;35.83;;;12.73;;
37459;SDS011;23318;50.966;5.284;2024-01-15T02:59:55;31.55;;;11.50;;
37459;SDS011;23318;50.966;5.284;2024-01-15T03:02:21;30.33;;;11.82;;
37459;SDS011;23318;50.966;5.284;2024-01-15T03:04:47;29.27;;;11.55;;
37459;SDS011;23318;50.966;5.284;2024-01-15T03:07:12;31.75;;;10.15;;
37459;SDS011;23318;50.966;5.284;2024-01-15T03:09:38;29.10;;;10.60;;
37459;SDS011;23318;50.966;5.284;2024-01-15T03:12:04;28.15;;;10.68;;
37459;SDS011;23318;50.966;5.284;2024-01-15T03:14:30;29.85;;;10.52;;
37459;SDS011;23318;50.966;5.284;2024-01-15T03:16:55;21.30;;;8.98;;
37459;SDS011;23318;50.966;5.284;2024-01-15T03:19:21;29.58;;;10.35;;
37459;SDS011;23318;50.966;5.284;2024-01-15T03:21:47;26.38;;;9.80;;
37459;SDS011;23318;50.966;5.284;2024-01-15T03:24:13;22.02;;;9.00;;
37459;SDS011;23318;50.966;5.284;2024-01-15T03:26:38;27.15;;;9.75;;
37459;SDS011;23318;50.966;5.284;2024-01-15T03:29:04;24.73;;;9.07;;
37459;SDS011;23318;50.966;5.284;2024-01-15T03:31:30;24.40;;;9.13;;
37459;SDS011;23318;50.966;5.284;2024-01-15T03:33:55;23.17;;;9.52;;
37459;SDS011;23318;50.966;5.284;2024-01-15T03:36:21;18.83;;;8.10;;
37459;SDS011;23318;50.966;5.284;2024-01-15T03:38:47;22.67;;;8.75;;
37459;SDS011;23318;50.966;5.284;2024-01-15T03:41:13;22.50;;;8.30;;
37459;SDS011;23318;50.966;5.284;2024-01-15T03:43:39;23.00;;;8.77;;
37459;SDS011;23318;50.966;5.284;2024-01-15T03:46:05;16.92;;;8.23;;
37459;SDS011;23318;50.966;5.284;2024-01-15T03:48:31;18.77;;;7.82;;
37459;SDS011;23318;50.966;5.284;2024-01-15T03:50:57;21.08;;;8.98;;
37459;SDS011;23318;50.966;5.284;2024-01-15T03:53:22;17.10;;;7.28;;
37459;SDS011;23318;50.966;5.284;2024-01-15T03:55:48;21.35;;;7.60;;
37459;SDS011;23318;50.966;5.284;2024-01-15T03:58:14;21.23;;;7.78;;
37459;SDS011;23318;50.966;5.284;2024-01-15T04:00:40;17.83;;;7.93;;
37459;SDS011;23318;50.966;5.284;2024-01-15T04:03:06;15.63;;;7.35;;
37459;SDS011;23318;50.966;5.284;2024-01-15T04:05:32;21.42;;;7.10;;
37459;SDS011;23318;50.966;5.284;2024-01-15T04:07:58;19.45;;;7.03;;
37459;SDS011;23318;50.966;5.284;2024-01-15T04:10:23;18.88;;;7.05;;
37459;SDS011;23318;50.966;5.284;2024-01-15T04:12:49;14.65;;;6.55;;
37459;SDS011;23318;50.966;5.284;2024-01-15T04:15:14;15.25;;;6.10;;
37459;SDS011;23318;50.966;5.284;2024-01-15T04:17:40;13.07;;;5.78;;
37459;SDS011;23318;50.966;5.284;2024-01-15T04:20:06;19.90;;;7.57;;
37459;SDS011;23318;50.966;5.284;2024-01-15T04:22:33;14.73;;;6.75;;
37459;SDS011;23318;50.966;5.284;2024-01-15T04:25:00;15.13;;;6.25;;
37459;SDS011;23318;50.966;5.284;2024-01-15T04:27:26;16.23;;;6.28;;
37459;SDS011;23318;50.966;5.284;2024-01-15T04:29:51;13.55;;;6.43;;
37459;SDS011;23318;50.966;5.284;2024-01-15T04:32:17;17.98;;;7.15;;
37459;SDS011;23318;50.966;5.284;2024-01-15T04:34:43;11.40;;;5.38;;
37459;SDS011;23318;50.966;5.284;2024-01-15T04:37:09;13.77;;;6.57;;
37459;SDS011;23318;50.966;5.284;2024-01-15T04:39:35;19.08;;;7.00;;
37459;SDS011;23318;50.966;5.284;2024-01-15T04:42:00;16.33;;;7.55;;
37459;SDS011;23318;50.966;5.284;2024-01-15T04:44:26;15.95;;;7.22;;
37459;SDS011;23318;50.966;5.284;2024-01-15T04:46:52;17.42;;;7.57;;
37459;SDS011;23318;50.966;5.284;2024-01-15T04:49:17;15.88;;;7.32;;
37459;SDS011;23318;50.966;5.284;2024-01-15T04:51:43;16.77;;;6.80;;
37459;SDS011;23318;50.966;5.284;2024-01-15T04:54:09;21.38;;;7.03;;
37459;SDS011;23318;50.966;5.284;2024-01-15T04:56:34;13.90;;;6.68;;
37459;SDS011;23318;50.966;5.284;2024-01-15T04:59:00;12.80;;;5.63;;
37459;SDS011;23318;50.966;5.284;2024-01-15T05:01:30;19.05;;;6.70;;
37459;SDS011;23318;50.966;5.284;2024-01-15T05:03:57;14.52;;;6.90;;
37459;SDS011;23318;50.966;5.284;2024-01-15T05:06:23;18.33;;;7.55;;
37459;SDS011;23318;50.966;5.284;2024-01-15T05:08:49;14.73;;;7.88;;
37459;SDS011;23318;50.966;5.284;2024-01-15T05:11:14;23.15;;;7.93;;
37459;SDS011;23318;50.966;5.284;2024-01-15T05:13:40;15.90;;;6.95;;
37459;SDS011;23318;50.966;5.284;2024-01-15T05:16:06;18.38;;;7.93;;
37459;SDS011;23318;50.966;5.284;2024-01-15T05:18:32;15.05;;;7.25;;
37459;SDS011;23318;50.966;5.284;2024-01-15T05:20:58;22.10;;;8.45;;
37459;SDS011;23318;50.966;5.284;2024-01-15T05:23:23;20.80;;;8.48;;
37459;SDS011;23318;50.966;5.284;2024-01-15T05:25:49;17.77;;;6.43;;
37459;SDS011;23318;50.966;5.284;2024-01-15T05:28:15;27.05;;;9.38;;
37459;SDS011;23318;50.966;5.284;2024-01-15T05:30:41;27.17;;;9.63;;
37459;SDS011;23318;50.966;5.284;2024-01-15T05:33:06;25.30;;;10.25;;
37459;SDS011;23318;50.966;5.284;2024-01-15T05:35:32;23.98;;;10.38;;
37459;SDS011;23318;50.966;5.284;2024-01-15T05:37:58;28.52;;;11.35;;
37459;SDS011;23318;50.966;5.284;2024-01-15T05:40:24;23.83;;;9.48;;
37459;SDS011;23318;50.966;5.284;2024-01-15T05:42:50;29.17;;;11.98;;
37459;SDS011;23318;50.966;5.284;2024-01-15T05:45:15;31.95;;;11.73;;
37459;SDS011;23318;50.966;5.284;2024-01-15T05:47:41;36.88;;;13.07;;
37459;SDS011;23318;50.966;5.284;2024-01-15T05:50:09;31.80;;;12.27;;
37459;SDS011;23318;50.966;5.284;2024-01-15T05:52:35;32.33;;;13.00;;
37459;SDS011;23318;50.966;5.284;2024-01-15T05:55:01;35.90;;;13.23;;
37459;SDS011;23318;50.966;5.284;2024-01-15T05:57:27;32.33;;;12.85;;
37459;SDS011;23318;50.966;5.284;2024-01-15T05:59:53;37.42;;;12.73;;
37459;SDS011;23318;50.966;5.284;2024-01-15T06:02:19;31.63;;;13.73;;
37459;SDS011;23318;50.966;5.284;2024-01-15T06:04:45;36.65;;;14.23;;
37459;SDS011;23318;50.966;5.284;2024-01-15T06:07:11;33.30;;;13.40;;
37459;SDS011;23318;50.966;5.284;2024-01-15T06:09:36;30.98;;;13.75;;
37459;SDS011;23318;50.966;5.284;2024-01-15T06:12:03;35.92;;;12.73;;
37459;SDS011;23318;50.966;5.284;2024-01-15T06:14:29;39.40;;;14.98;;
37459;SDS011;23318;50.966;5.284;2024-01-15T06:16:55;28.02;;;13.32;;
37459;SDS011;23318;50.966;5.284;2024-01-15T06:19:21;33.08;;;12.90;;
37459;SDS011;23318;50.966;5.284;2024-01-15T06:21:46;36.15;;;13.27;;
37459;SDS011;23318;50.966;5.284;2024-01-15T06:24:12;32.72;;;13.07;;
37459;SDS011;23318;50.966;5.284;2024-01-15T06:26:38;32.30;;;12.60;;
37459;SDS011;23318;50.966;5.284;2024-01-15T06:29:04;32.55;;;11.90;;
37459;SDS011;23318;50.966;5.284;2024-01-15T06:31:30;29.27;;;11.45;;
37459;SDS011;23318;50.966;5.284;2024-01-15T06:33:55;36.08;;;11.82;;
37459;SDS011;23318;50.966;5.284;2024-01-15T06:36:21;24.75;;;10.50;;
37459;SDS011;23318;50.966;5.284;2024-01-15T06:38:47;27.20;;;12.88;;
37459;SDS011;23318;50.966;5.284;2024-01-15T06:41:12;34.25;;;11.63;;
37459;SDS011;23318;50.966;5.284;2024-01-15T06:43:38;27.90;;;11.90;;
37459;SDS011;23318;50.966;5.284;2024-01-15T06:46:04;27.38;;;11.55;;
37459;SDS011;23318;50.966;5.284;2024-01-15T06:48:29;31.05;;;13.15;;
37459;SDS011;23318;50.966;5.284;2024-01-15T06:50:55;31.02;;;11.90;;
37459;SDS011;23318;50.966;5.284;2024-01-15T06:53:21;31.42;;;11.90;;
37459;SDS011;23318;50.966;5.284;2024-01-15T06:55:47;31.45;;;10.95;;
37459;SDS011;23318;50.966;5.284;2024-01-15T06:58:14;25.83;;;10.00;;
37459;SDS011;23318;50.966;5.284;2024-01-15T07:00:40;29.52;;;10.80;;
37459;SDS011;23318;50.966;5.284;2024-01-15T07:03:05;24.35;;;8.90;;
37459;SDS011;23318;50.966;5.284;2024-01-15T07:05:31;21.35;;;7.93;;
37459;SDS011;23318;50.966;5.284;2024-01-15T07:07:57;22.58;;;9.65;;
37459;SDS011;23318;50.966;5.284;2024-01-15T07:10:23;19.50;;;8.75;;
37459;SDS011;23318;50.966;5.284;2024-01-15T07:12:48;23.90;;;10.30;;
37459;SDS011;23318;50.966;5.284;2024-01-15T07:15:14;21.50;;;8.20;;
37459;SDS011;23318;50.966;5.284;2024-01-15T07:17:40;19.55;;;8.50;;
37459;SDS011;23318;50.966;5.284;2024-01-15T07:20:07;16.42;;;8.25;;
37459;SDS011;23318;50.966;5.284;2024-01-15T07:22:33;24.77;;;8.38;;
37459;SDS011;23318;50.966;5.284;2024-01-15T07:25:00;13.73;;;5.95;;
37459;SDS011;23318;50.966;5.284;2024-01-15T07:27:26;17.17;;;7.15;;
37459;SDS011;23318;50.966;5.284;2024-01-15T07:29:51;14.45;;;6.75;;
37459;SDS011;23318;50.966;5.284;2024-01-15T07:32:17;19.77;;;7.53;;
37459;SDS011;23318;50.966;5.284;2024-01-15T07:34:43;19.90;;;7.28;;
37459;SDS011;23318;50.966;5.284;2024-01-15T07:37:08;20.65;;;6.78;;
37459;SDS011;23318;50.966;5.284;2024-01-15T07:39:34;11.48;;;5.65;;
37459;SDS011;23318;50.966;5.284;2024-01-15T07:42:00;17.83;;;5.93;;
37459;SDS011;23318;50.966;5.284;2024-01-15T07:44:26;14.77;;;5.70;;
37459;SDS011;23318;50.966;5.284;2024-01-15T07:46:51;11.50;;;5.97;;
37459;SDS011;23318;50.966;5.284;2024-01-15T07:49:17;13.52;;;5.20;;
37459;SDS011;23318;50.966;5.284;2024-01-15T07:51:43;12.05;;;5.63;;
37459;SDS011;23318;50.966;5.284;2024-01-15T07:54:09;16.75;;;5.57;;
37459;SDS011;23318;50.966;5.284;2024-01-15T07:56:55;18.15;;;5.28;;
37459;SDS011;23318;50.966;5.284;2024-01-15T07:59:22;17.83;;;5.25;;
37459;SDS011;23318;50.966;5.284;2024-01-15T08:01:48;11.23;;;4.82;;
37459;SDS011;23318;50.966;5.284;2024-01-15T08:04:14;8.65;;;3.88;;
37459;SDS011;23318;50.966;5.284;2024-01-15T08:06:40;12.07;;;4.85;;
37459;SDS011;23318;50.966;5.284;2024-01-15T08:09:06;7.50;;;3.90;;
37459;SDS011;23318;50.966;5.284;2024-01-15T08:11:33;13.45;;;4.13;;
37459;SDS011;23318;50.966;5.284;2024-01-15T08:14:04;12.13;;;3.83;;
37459;SDS011;23318;50.966;5.284;2024-01-15T08:16:29;7.75;;;4.07;;
37459;SDS011;23318;50.966;5.284;2024-01-15T08:18:55;8.63;;;4.05;;
37459;SDS011;23318;50.966;5.284;2024-01-15T08:21:21;5.75;;;3.65;;
37459;SDS011;23318;50.966;5.284;2024-01-15T08:23:47;11.40;;;4.10;;
37459;SDS011;23318;50.966;5.284;2024-01-15T08:26:13;14.50;;;4.35;;
37459;SDS011;23318;50.966;5.284;2024-01-15T08:28:38;6.38;;;4.20;;
37459;SDS011;23318;50.966;5.284;2024-01-15T08:31:04;7.10;;;4.32;;
37459;SDS011;23318;50.966;5.284;2024-01-15T08:33:30;10.13;;;4.05;;
37459;SDS011;23318;50.966;5.284;2024-01-15T08:35:55;9.00;;;4.68;;
37459;SDS011;23318;50.966;5.284;2024-01-15T08:38:21;10.00;;;4.10;;
37459;SDS011;23318;50.966;5.284;2024-01-15T08:40:47;12.80;;;3.92;;
37459;SDS011;23318;50.966;5.284;2024-01-15T08:43:13;20.48;;;4.15;;
37459;SDS011;23318;50.966;5.284;2024-01-15T08:45:38;11.75;;;3.95;;
37459;SDS011;23318;50.966;5.284;2024-01-15T08:48:04;7.03;;;3.47;;
37459;SDS011;23318;50.966;5.284;2024-01-15T08:50:30;21.83;;;3.83;;
37459;SDS011;23318;50.966;5.284;2024-01-15T08:52:57;12.13;;;3.72;;
37459;SDS011;23318;50.966;5.284;2024-01-15T08:55:23;17.42;;;5.97;;
37459;SDS011;23318;50.966;5.284;2024-01-15T08:57:49;10.48;;;5.15;;
37459;SDS011;23318;50.966;5.284;2024-01-15T09:00:15;15.30;;;2.97;;
37459;SDS011;23318;50.966;5.284;2024-01-15T09:02:41;9.50;;;3.75;;
37459;SDS011;23318;50.966;5.284;2024-01-15T09:05:07;10.70;;;4.53;;
37459;SDS011;23318;50.966;5.284;2024-01-15T09:07:33;8.43;;;3.72;;
37459;SDS011;23318;50.966;5.284;2024-01-15T09:09:59;17.15;;;4.90;;
37459;SDS011;23318;50.966;5.284;2024-01-15T09:12:28;15.65;;;5.10;;
37459;SDS011;23318;50.966;5.284;2024-01-15T09:14:54;9.45;;;3.45;;
37459;SDS011;23318;50.966;5.284;2024-01-15T09:17:20;4.90;;;2.40;;
37459;SDS011;23318;50.966;5.284;2024-01-15T09:19:49;6.38;;;2.95;;
37459;SDS011;23318;50.966;5.284;2024-01-15T09:22:15;13.05;;;3.80;;
37459;SDS011;23318;50.966;5.284;2024-01-15T09:24:46;13.50;;;3.30;;
37459;SDS011;23318;50.966;5.284;2024-01-15T09:27:12;4.75;;;2.20;;
37459;SDS011;23318;50.966;5.284;2024-01-15T09:29:38;3.72;;;2.03;;
37459;SDS011;23318;50.966;5.284;2024-01-15T09:32:05;6.03;;;2.20;;
37459;SDS011;23318;50.966;5.284;2024-01-15T09:34:32;8.38;;;2.50;;
37459;SDS011;23318;50.966;5.284;2024-01-15T09:36:58;7.88;;;2.35;;
37459;SDS011;23318;50.966;5.284;2024-01-15T09:39:25;13.45;;;3.80;;
37459;SDS011;23318;50.966;5.284;2024-01-15T09:41:52;11.68;;;2.30;;
37459;SDS011;23318;50.966;5.284;2024-01-15T09:44:18;11.15;;;3.30;;
37459;SDS011;23318;50.966;5.284;2024-01-15T09:46:45;10.65;;;2.35;;
37459;SDS011;23318;50.966;5.284;2024-01-15T09:49:11;9.40;;;3.22;;
37459;SDS011;23318;50.966;5.284;2024-01-15T09:51:37;6.75;;;2.25;;
37459;SDS011;23318;50.966;5.284;2024-01-15T09:54:05;11.48;;;2.95;;
37459;SDS011;23318;50.966;5.284;2024-01-15T09:56:31;7.80;;;2.17;;
37459;SDS011;23318;50.966;5.284;2024-01-15T09:58:57;11.68;;;2.05;;
37459;SDS011;23318;50.966;5.284;2024-01-15T10:01:23;9.52;;;1.95;;
37459;SDS011;23318;50.966;5.284;2024-01-15T10:03:50;9.32;;;1.85;;
37459;SDS011;23318;50.966;5.284;2024-01-15T10:06:16;7.50;;;2.17;;
37459;SDS011;23318;50.966;5.284;2024-01-15T10:08:44;6.82;;;1.77;;
37459;SDS011;23318;50.966;5.284;2024-01-15T10:11:13;11.23;;;2.08;;
37459;SDS011;23318;50.966;5.284;2024-01-15T10:13:39;8.15;;;2.22;;
37459;SDS011;23318;50.966;5.284;2024-01-15T10:16:05;7.35;;;1.92;;
37459;SDS011;23318;50.966;5.284;2024-01-15T10:18:31;15.20;;;2.30;;
37459;SDS011;23318;50.966;5.284;2024-01-15T10:20:57;8.02;;;1.73;;
37459;SDS011;23318;50.966;5.284;2024-01-15T10:23:23;6.82;;;1.52;;
37459;SDS011;23318;50.966;5.284;2024-01-15T10:25:49;6.57;;;1.65;;
37459;SDS011;23318;50.966;5.284;2024-01-15T10:28:16;11.90;;;2.22;;
37459;SDS011;23318;50.966;5.284;2024-01-15T10:30:44;16.13;;;2.67;;
37459;SDS011;23318;50.966;5.284;2024-01-15T10:33:10;5.38;;;1.50;;
37459;SDS011;23318;50.966;5.284;2024-01-15T10:35:37;5.82;;;1.42;;
37459;SDS011;23318;50.966;5.284;2024-01-15T10:38:03;4.38;;;1.58;;
37459;SDS011;23318;50.966;5.284;2024-01-15T10:40:30;11.50;;;1.35;;
37459;SDS011;23318;50.966;5.284;2024-01-15T10:42:56;14.60;;;1.60;;
37459;SDS011;23318;50.966;5.284;2024-01-15T10:45:22;17.15;;;1.80;;
37459;SDS011;23318;50.966;5.284;2024-01-15T10:47:48;6.45;;;1.30;;
37459;SDS011;23318;50.966;5.284;2024-01-15T10:50:14;6.93;;;1.45;;
37459;SDS011;23318;50.966;5.284;2024-01-15T10:52:40;5.60;;;1.38;;
37459;SDS011;23318;50.966;5.284;2024-01-15T10:55:08;14.68;;;1.65;;
37459;SDS011;23318;50.966;5.284;2024-01-15T10:57:35;8.50;;;0.93;;
37459;SDS011;23318;50.966;5.284;2024-01-15T11:00:02;6.55;;;1.40;;
37459;SDS011;23318;50.966;5.284;2024-01-15T11:02:35;3.92;;;1.00;;
37459;SDS011;23318;50.966;5.284;2024-01-15T11:05:02;10.07;;;1.48;;
37459;SDS011;23318;50.966;5.284;2024-01-15T11:07:30;6.30;;;1.48;;
37459;SDS011;23318;50.966;5.284;2024-01-15T11:09:56;4.97;;;1.35;;
37459;SDS011;23318;50.966;5.284;2024-01-15T11:12:24;3.83;;;0.73;;
37459;SDS011;23318;50.966;5.284;2024-01-15T11:14:50;5.80;;;1.50;;
37459;SDS011;23318;50.966;5.284;2024-01-15T11:17:16;10.95;;;1.00;;
37459;SDS011;23318;50.966;5.284;2024-01-15T11:19:43;9.73;;;1.25;;
37459;SDS011;23318;50.966;5.284;2024-01-15T11:24:54;10.48;;;2.00;;
37459;SDS011;23318;50.966;5.284;2024-01-15T11:27:39;4.57;;;1.38;;
37459;SDS011;23318;50.966;5.284;2024-01-15T11:30:09;6.05;;;1.20;;
37459;SDS011;23318;50.966;5.284;2024-01-15T11:32:36;13.73;;;1.42;;
37459;SDS011;23318;50.966;5.284;2024-01-15T11:35:06;14.55;;;1.77;;
37459;SDS011;23318;50.966;5.284;2024-01-15T11:40:23;8.63;;;2.22;;
37459;SDS011;23318;50.966;5.284;2024-01-15T11:42:58;6.03;;;2.10;;
37459;SDS011;23318;50.966;5.284;2024-01-15T11:45:23;3.85;;;1.67;;
37459;SDS011;23318;50.966;5.284;2024-01-15T11:50:30;7.55;;;1.85;;
37459;SDS011;23318;50.966;5.284;2024-01-15T11:53:02;4.53;;;1.38;;
37459;SDS011;23318;50.966;5.284;2024-01-15T11:58:02;7.43;;;2.28;;
37459;SDS011;23318;50.966;5.284;2024-01-15T12:00:30;5.10;;;1.50;;
37459;SDS011;23318;50.966;5.284;2024-01-15T12:02:58;7.15;;;1.50;;
37459;SDS011;23318;50.966;5.284;2024-01-15T12:05:24;6.10;;;1.52;;
37459;SDS011;23318;50.966;5.284;2024-01-15T12:07:50;4.13;;;1.05;;
37459;SDS011;23318;50.966;5.284;2024-01-15T12:10:19;4.38;;;1.10;;
37459;SDS011;23318;50.966;5.284;2024-01-15T12:13:05;3.55;;;0.90;;
37459;SDS011;23318;50.966;5.284;2024-01-15T12:15:31;1.48;;;1.00;;
37459;SDS011;23318;50.966;5.284;2024-01-15T12:17:58;2.45;;;0.75;;
37459;SDS011;23318;50.966;5.284;2024-01-15T12:20:26;3.47;;;0.85;;
37459;SDS011;23318;50.966;5.284;2024-01-15T12:22:52;1.27;;;1.13;;
37459;SDS011;23318;50.966;5.284;2024-01-15T12:25:20;1.05;;;0.77;;
37459;SDS011;23318;50.966;5.284;2024-01-15T12:27:45;2.17;;;1.08;;
37459;SDS011;23318;50.966;5.284;2024-01-15T12:30:12;4.68;;;1.33;;
37459;SDS011;23318;50.966;5.284;2024-01-15T12:32:39;1.30;;;0.82;;
37459;SDS011;23318;50.966;5.284;2024-01-15T12:35:06;1.48;;;1.10;;
37459;SDS011;23318;50.966;5.284;2024-01-15T12:37:34;4.20;;;1.10;;
37459;SDS011;23318;50.966;5.284;2024-01-15T12:40:01;3.67;;;1.10;;
37459;SDS011;23318;50.966;5.284;2024-01-15T12:42:27;2.60;;;1.30;;
37459;SDS011;23318;50.966;5.284;2024-01-15T12:44:56;5.65;;;1.17;;
37459;SDS011;23318;50.966;5.284;2024-01-15T12:47:22;6.18;;;1.48;;
37459;SDS011;23318;50.966;5.284;2024-01-15T12:49:48;3.28;;;1.40;;
37459;SDS011;23318;50.966;5.284;2024-01-15T12:52:18;2.90;;;1.55;;
37459;SDS011;23318;50.966;5.284;2024-01-15T12:54:46;4.70;;;1.55;;
37459;SDS011;23318;50.966;5.284;2024-01-15T12:57:12;4.10;;;1.45;;
37459;SDS011;23318;50.966;5.284;2024-01-15T12:59:38;3.03;;;1.52;;
37459;SDS011;23318;50.966;5.284;2024-01-15T13:02:04;7.47;;;2.15;;
37459;SDS011;23318;50.966;5.284;2024-01-15T13:04:29;4.32;;;1.25;;
37459;SDS011;23318;50.966;5.284;2024-01-15T13:06:55;8.38;;;1.50;;
37459;SDS011;23318;50.966;5.284;2024-01-15T13:09:22;2.83;;;1.60;;
37459;SDS011;23318;50.966;5.284;2024-01-15T13:11:47;1.73;;;1.17;;
37459;SDS011;23318;50.966;5.284;2024-01-15T13:14:13;3.60;;;0.95;;
37459;SDS011;23318;50.966;5.284;2024-01-15T13:16:40;3.67;;;1.08;;
37459;SDS011;23318;50.966;5.284;2024-01-15T13:19:07;4.35;;;1.02;;
37459;SDS011;23318;50.966;5.284;2024-01-15T13:21:41;3.58;;;1.00;;
37459;SDS011;23318;50.966;5.284;2024-01-15T13:24:07;3.72;;;1.33;;
37459;SDS011;23318;50.966;5.284;2024-01-15T13:26:33;1.80;;;0.88;;
37459;SDS011;23318;50.966;5.284;2024-01-15T13:29:00;4.97;;;0.77;;
37459;SDS011;23318;50.966;5.284;2024-01-15T13:31:27;2.20;;;1.00;;
37459;SDS011;23318;50.966;5.284;2024-01-15T13:33:53;1.08;;;0.65;;
37459;SDS011;23318;50.966;5.284;2024-01-15T13:36:20;0.82;;;0.70;;
37459;SDS011;23318;50.966;5.284;2024-01-15T13:38:46;1.88;;;0.57;;
37459;SDS011;23318;50.966;5.284;2024-01-15T13:41:12;1.95;;;0.68;;
37459;SDS011;23318;50.966;5.284;2024-01-15T13:43:37;1.30;;;0.70;;
37459;SDS011;23318;50.966;5.284;2024-01-15T13:46:03;4.10;;;0.88;;
37459;SDS011;23318;50.966;5.284;2024-01-15T13:48:30;2.35;;;0.80;;
37459;SDS011;23318;50.966;5.284;2024-01-15T13:50:56;2.42;;;1.05;;
37459;SDS011;23318;50.966;5.284;2024-01-15T13:53:23;3.67;;;1.17;;
37459;SDS011;23318;50.966;5.284;2024-01-15T13:55:48;2.00;;;1.08;;
37459;SDS011;23318;50.966;5.284;2024-01-15T13:58:14;1.63;;;0.93;;
37459;SDS011;23318;50.966;5.284;2024-01-15T14:00:39;3.15;;;1.27;;
37459;SDS011;23318;50.966;5.284;2024-01-15T14:03:06;1.80;;;1.08;;
37459;SDS011;23318;50.966;5.284;2024-01-15T14:05:31;3.00;;;1.13;;
37459;SDS011;23318;50.966;5.284;2024-01-15T14:07:57;1.35;;;0.85;;
37459;SDS011;23318;50.966;5.284;2024-01-15T14:10:23;4.18;;;1.00;;
37459;SDS011;23318;50.966;5.284;2024-01-15T14:12:49;1.48;;;0.82;;
37459;SDS011;23318;50.966;5.284;2024-01-15T14:15:15;1.95;;;1.23;;
37459;SDS011;23318;50.966;5.284;2024-01-15T14:17:40;3.25;;;1.20;;
37459;SDS011;23318;50.966;5.284;2024-01-15T14:20:06;2.30;;;1.00;;
37459;SDS011;23318;50.966;5.284;2024-01-15T14:22:34;2.47;;;0.90;;
37459;SDS011;23318;50.966;5.284;2024-01-15T14:24:59;1.83;;;0.82;;
37459;SDS011;23318;50.966;5.284;2024-01-15T14:27:25;0.73;;;0.55;;
37459;SDS011;23318;50.966;5.284;2024-01-15T14:29:51;1.05;;;0.80;;
37459;SDS011;23318;50.966;5.284;2024-01-15T14:32:17;3.50;;;0.80;;
37459;SDS011;23318;50.966;5.284;2024-01-15T14:34:42;1.23;;;0.77;;
37459;SDS011;23318;50.966;5.284;2024-01-15T14:37:08;2.88;;;0.90;;
37459;SDS011;23318;50.966;5.284;2024-01-15T14:39:34;3.00;;;0.95;;
37459;SDS011;23318;50.966;5.284;2024-01-15T14:42:00;2.38;;;0.75;;